Time;durP1;ratioP1;P1;durP2;ratioP2;P2;SDS_P1;SDS_P2;PMS_P1;PMS_P2;Temp;Humidity;BMP_temperature;BMP_pressure;BME280_temperature;BME280_humidity;BME280_pressure;Samples;Min_cycle;Max_cycle;Signal;HPM_P1;HPM_P2
2022/09/10 00:02:54;;;;;;;8.02;4.63;;;16.40;79.40;;;;;;9181186;19;20048;-67
2022/09/10 00:05:57;;;;;;;6.60;4.20;;;16.40;79.40;;;;;;9181453;19;20011;-68
2022/09/10 00:09:03;;;;;;;9.10;4.45;;;16.40;79.50;;;;;;9178725;19;20034;-68
2022/09/10 00:12:07;;;;;;;7.68;4.43;;;16.40;79.60;;;;;;9181915;19;20014;-66
2022/09/10 00:15:12;;;;;;;6.88;4.88;;;16.40;79.50;;;;;;9180232;19;20463;-68
2022/09/10 00:18:19;;;;;;;6.78;4.25;;;16.40;79.60;;;;;;9179476;19;20023;-68
2022/09/10 00:21:23;;;;;;;9.18;4.50;;;16.40;79.60;;;;;;9180906;19;20021;-69
2022/09/10 00:24:28;;;;;;;10.00;4.15;;;16.40;79.70;;;;;;9178764;19;20017;-69
2022/09/10 00:27:32;;;;;;;12.25;5.00;;;16.40;79.70;;;;;;9179739;19;20490;-67
2022/09/10 00:30:40;;;;;;;;;;;16.30;79.60;;;;;;9180485;19;20022;-68
2022/09/10 00:33:44;;;;;;;7.43;4.03;;;16.30;79.60;;;;;;9180209;19;19922;-68
2022/09/10 00:36:47;;;;;;;8.75;4.13;;;16.30;79.50;;;;;;9175319;19;20018;-69
2022/09/10 00:39:54;;;;;;;7.38;4.40;;;16.30;79.60;;;;;;9179998;19;20019;-67
2022/09/10 00:42:58;;;;;;;5.90;3.80;;;16.30;79.70;;;;;;9176076;19;20631;-69
2022/09/10 00:46:01;;;;;;;;;;;16.30;79.80;;;;;;9176906;19;20056;-66
2022/09/10 00:49:11;;;;;;;12.05;4.60;;;16.20;79.60;;;;;;9178856;19;19929;-69
2022/09/10 00:52:14;;;;;;;7.95;4.57;;;16.30;79.60;;;;;;9179094;19;20054;-68
2022/09/10 00:55:21;;;;;;;9.52;4.65;;;16.20;79.70;;;;;;9179455;19;20015;-67
2022/09/10 00:58:28;;;;;;;11.00;5.15;;;16.20;79.70;;;;;;9178944;19;20036;-69
2022/09/10 01:01:33;;;;;;;6.80;4.10;;;16.20;79.80;;;;;;9179386;19;20018;-65
2022/09/10 01:04:38;;;;;;;12.55;4.90;;;16.20;79.90;;;;;;9176654;19;20018;-68
2022/09/10 01:07:42;;;;;;;9.15;4.18;;;16.20;80.00;;;;;;9178519;19;20040;-67
2022/09/10 01:11:01;;;;;;;14.02;4.82;;;16.20;80.00;;;;;;9176126;19;20014;-68
2022/09/10 01:14:22;;;;;;;12.07;4.40;;;16.20;80.20;;;;;;9177306;19;20022;-64
2022/09/10 01:17:35;;;;;;;10.68;4.40;;;16.20;80.20;;;;;;9179752;19;20021;-68
2022/09/10 01:20:55;;;;;;;11.05;4.28;;;16.20;80.20;;;;;;9178590;19;20057;-68
2022/09/10 01:24:22;;;;;;;15.30;4.63;;;16.20;80.30;;;;;;9178540;19;20010;-67
2022/09/10 01:27:40;;;;;;;12.35;5.05;;;16.20;80.50;;;;;;9179562;19;20010;-67
2022/09/10 01:30:47;;;;;;;9.13;4.30;;;16.20;80.50;;;;;;9176766;19;20486;-66
2022/09/10 01:33:58;;;;;;;12.48;4.38;;;16.20;80.40;;;;;;9176325;19;20074;-67
2022/09/10 01:37:07;;;;;;;10.13;4.88;;;16.20;80.60;;;;;;9171765;19;20023;-68
2022/09/10 01:40:12;;;;;;;15.23;4.82;;;16.20;80.50;;;;;;9177040;19;20017;-67
2022/09/10 01:43:18;;;;;;;12.75;4.47;;;16.20;80.50;;;;;;9172518;19;20010;-66
2022/09/10 01:46:38;;;;;;;10.43;5.20;;;16.20;80.50;;;;;;9176110;19;20450;-68
2022/09/10 01:49:57;;;;;;;14.23;4.28;;;16.30;80.70;;;;;;9176288;19;20010;-69
2022/09/10 01:53:12;;;;;;;16.55;5.28;;;16.30;80.70;;;;;;9175826;19;20017;-69
2022/09/10 01:56:28;;;;;;;12.57;5.10;;;16.30;80.80;;;;;;9176362;19;20018;-69
2022/09/10 01:59:42;;;;;;;13.50;4.72;;;16.30;80.80;;;;;;9175797;19;20467;-66
2022/09/10 02:02:50;;;;;;;13.07;5.18;;;16.30;80.80;;;;;;9175798;19;20006;-66
2022/09/10 02:05:55;;;;;;;23.25;5.30;;;16.30;80.80;;;;;;9174065;19;20018;-67
2022/09/10 02:09:01;;;;;;;10.43;5.45;;;16.30;80.80;;;;;;9173190;19;20014;-68
2022/09/10 02:12:06;;;;;;;17.65;5.70;;;16.40;80.90;;;;;;9183622;19;20026;-66
2022/09/10 02:15:28;;;;;;;19.55;5.70;;;16.40;80.90;;;;;;9183687;19;20490;-70
2022/09/10 02:18:54;;;;;;;10.45;5.50;;;16.40;81.00;;;;;;9183523;19;20007;-67
2022/09/10 02:21:59;;;;;;;10.13;6.43;;;16.40;80.90;;;;;;9184801;19;20051;-69
2022/09/10 02:25:04;;;;;;;12.90;6.00;;;16.40;81.00;;;;;;9182853;19;20401;-69
2022/09/10 02:28:08;;;;;;;10.90;5.97;;;16.50;81.10;;;;;;9184869;19;20504;-67
2022/09/10 02:31:13;;;;;;;14.52;6.75;;;16.50;81.20;;;;;;9184412;19;20376;-68
2022/09/10 02:34:18;;;;;;;19.95;7.05;;;16.50;81.20;;;;;;9183207;19;20064;-68
2022/09/10 02:37:24;;;;;;;11.02;6.75;;;16.50;81.20;;;;;;9180829;19;20014;-68
2022/09/10 02:40:30;;;;;;;15.40;7.55;;;16.50;81.20;;;;;;9184755;19;20375;-69
2022/09/10 02:43:37;;;;;;;11.98;6.63;;;16.50;81.20;;;;;;9182595;19;20023;-68
2022/09/10 02:46:43;;;;;;;13.88;7.53;;;16.50;81.20;;;;;;9182856;19;20018;-69
2022/09/10 02:49:46;;;;;;;21.85;8.50;;;16.50;81.30;;;;;;9182981;19;20010;-67
2022/09/10 02:52:50;;;;;;;16.10;7.93;;;16.60;81.30;;;;;;9182040;19;20024;-69
2022/09/10 02:55:54;;;;;;;18.70;7.20;;;16.60;81.30;;;;;;9182257;19;20023;-68
2022/09/10 02:58:58;;;;;;;12.52;8.43;;;16.60;81.30;;;;;;9184371;19;20011;-68
2022/09/10 03:02:06;;;;;;;18.75;8.70;;;16.60;81.40;;;;;;9181973;19;20014;-69
2022/09/10 03:05:10;;;;;;;15.45;9.25;;;16.60;81.40;;;;;;9181650;19;20376;-68
2022/09/10 03:08:14;;;;;;;19.58;10.18;;;16.60;81.40;;;;;;9181493;19;20118;-69
2022/09/10 03:11:22;;;;;;;22.77;10.10;;;16.60;81.40;;;;;;9182261;19;20006;-68
2022/09/10 03:14:29;;;;;;;21.30;10.50;;;16.60;81.40;;;;;;9181879;19;20019;-69
2022/09/10 03:17:34;;;;;;;18.60;9.85;;;16.70;81.50;;;;;;9183902;19;20030;-70
2022/09/10 03:20:40;;;;;;;17.33;9.85;;;16.70;81.60;;;;;;9181108;19;20356;-69
2022/09/10 03:23:46;;;;;;;14.95;9.70;;;16.70;81.60;;;;;;9182220;19;20033;-69
2022/09/10 03:26:51;;;;;;;23.15;9.38;;;16.70;81.50;;;;;;9181557;19;20014;-68
2022/09/10 03:29:56;;;;;;;17.63;9.68;;;16.70;81.60;;;;;;9180591;19;20011;-69
2022/09/10 03:33:02;;;;;;;21.20;9.43;;;16.70;81.60;;;;;;9182729;19;20475;-67
2022/09/10 03:36:07;;;;;;;19.38;9.38;;;16.80;81.70;;;;;;9171459;19;20049;-68
2022/09/10 03:39:11;;;;;;;23.08;9.82;;;16.80;81.70;;;;;;9182476;19;20026;-66
2022/09/10 03:42:15;;;;;;;19.85;10.07;;;16.80;81.70;;;;;;9182525;19;20015;-69
2022/09/10 03:45:19;;;;;;;20.85;9.82;;;16.80;81.70;;;;;;9178937;19;20011;-68
2022/09/10 03:48:25;;;;;;;23.35;9.48;;;16.80;81.70;;;;;;9182557;19;20011;-68
2022/09/10 03:51:29;;;;;;;20.58;9.57;;;16.80;81.70;;;;;;9182513;19;20467;-69
2022/09/10 03:54:34;;;;;;;21.20;10.57;;;16.80;81.70;;;;;;9180980;19;20017;-68
2022/09/10 03:57:38;;;;;;;16.73;10.07;;;16.80;81.80;;;;;;9180923;19;20037;-66
2022/09/10 04:00:42;;;;;;;24.75;10.88;;;16.90;81.80;;;;;;9180262;19;20007;-70
2022/09/10 04:03:48;;;;;;;;;;;16.90;81.80;;;;;;9182364;19;20014;-69
2022/09/10 04:06:53;;;;;;;18.42;10.05;;;16.90;81.80;;;;;;9180073;19;19907;-69
2022/09/10 04:09:56;;;;;;;21.38;10.35;;;16.90;81.60;;;;;;9176511;19;20014;-69
2022/09/10 04:13:00;;;;;;;18.40;10.93;;;16.90;81.70;;;;;;9182126;19;20010;-68
2022/09/10 04:16:04;;;;;;;;;;;16.90;82.30;;;;;;9180946;19;20039;-67
2022/09/10 04:19:11;;;;;;;16.13;10.80;;;16.90;82.00;;;;;;9179498;19;19932;-69
2022/09/10 04:22:16;;;;;;;19.02;10.27;;;16.90;81.50;;;;;;9179921;19;20018;-68
2022/09/10 04:25:20;;;;;;;;;;;16.90;81.70;;;;;;9177549;19;20447;-65
2022/09/10 04:28:24;;;;;;;21.83;10.57;;;16.90;81.60;;;;;;9179829;19;20316;-67
2022/09/10 04:31:28;;;;;;;26.00;10.55;;;16.90;81.40;;;;;;9176236;19;20019;-68
2022/09/10 04:34:38;;;;;;;25.80;11.07;;;16.90;81.60;;;;;;9172828;19;20006;-66
2022/09/10 04:37:43;;;;;;;20.48;11.57;;;16.90;81.70;;;;;;9178926;19;20010;-66
2022/09/10 04:40:47;;;;;;;22.25;11.77;;;16.90;81.80;;;;;;9178911;19;20022;-70
2022/09/10 04:43:51;;;;;;;;;;;16.90;81.80;;;;;;9181031;19;20036;-67
2022/09/10 04:46:55;;;;;;;23.63;12.10;;;16.90;81.70;;;;;;9180074;19;19923;-68
2022/09/10 04:50:02;;;;;;;;;;;16.90;81.50;;;;;;9181292;19;20353;-67
2022/09/10 04:53:06;;;;;;;20.27;11.60;;;16.90;81.50;;;;;;9176447;19;19926;-65
2022/09/10 04:56:12;;;;;;;21.40;12.02;;;16.90;81.50;;;;;;9175798;19;20010;-67
2022/09/10 04:59:15;;;;;;;25.45;12.75;;;16.90;81.60;;;;;;9177563;19;20479;-67
2022/09/10 05:02:22;;;;;;;22.65;12.27;;;16.90;81.70;;;;;;9172231;19;20015;-67
2022/09/10 05:05:29;;;;;;;23.15;11.70;;;16.90;81.80;;;;;;9168954;19;20014;-66
2022/09/10 05:08:33;;;;;;;23.35;11.98;;;16.90;81.80;;;;;;9168675;19;20368;-68
2022/09/10 05:11:37;;;;;;;21.23;11.35;;;17.00;81.90;;;;;;9173185;19;20025;-69
2022/09/10 05:14:41;;;;;;;;;;;16.90;81.90;;;;;;9174763;19;20026;-68
2022/09/10 05:17:46;;;;;;;20.92;12.48;;;17.00;81.90;;;;;;9171977;19;19922;-69
2022/09/10 05:20:51;;;;;;;23.60;11.25;;;17.00;81.70;;;;;;9172856;19;20078;-68
2022/09/10 05:23:56;;;;;;;24.88;11.57;;;16.90;81.80;;;;;;9174794;19;20455;-68
2022/09/10 05:27:01;;;;;;;20.88;10.95;;;17.00;81.90;;;;;;9174673;19;20463;-68
2022/09/10 05:30:07;;;;;;;31.95;11.80;;;17.00;82.50;;;;;;9178465;19;20022;-68
2022/09/10 05:33:11;;;;;;;25.63;12.25;;;17.00;82.00;;;;;;9175266;19;20435;-69
2022/09/10 05:36:17;;;;;;;;;;;17.00;82.00;;;;;;9174422;19;20010;-69
2022/09/10 05:39:21;;;;;;;18.05;11.30;;;17.00;82.00;;;;;;9177948;19;19922;-69
2022/09/10 05:42:25;;;;;;;24.10;11.32;;;16.90;81.80;;;;;;9177521;19;20018;-69
2022/09/10 05:45:28;;;;;;;20.38;10.23;;;17.00;81.90;;;;;;9178695;19;20026;-69
2022/09/10 05:48:33;;;;;;;20.48;11.10;;;17.00;82.00;;;;;;9182324;19;20022;-70
2022/09/10 05:51:42;;;;;;;24.67;11.35;;;17.00;82.00;;;;;;9184788;19;20022;-69
2022/09/10 05:54:46;;;;;;;22.90;10.68;;;17.00;82.10;;;;;;9184879;19;20015;-69
2022/09/10 05:57:50;;;;;;;27.27;11.52;;;17.00;82.10;;;;;;9184479;19;20018;-68
2022/09/10 06:00:56;;;;;;;22.60;10.93;;;17.00;82.20;;;;;;9183045;19;20376;-70
2022/09/10 06:04:01;;;;;;;24.08;10.70;;;17.00;82.20;;;;;;9185886;19;20014;-68
2022/09/10 06:07:07;;;;;;;18.95;11.48;;;17.00;82.20;;;;;;9182844;19;20417;-69
2022/09/10 06:10:11;;;;;;;23.88;11.25;;;17.00;82.30;;;;;;9181151;19;20018;-69
2022/09/10 06:13:19;;;;;;;21.20;10.80;;;17.00;82.30;;;;;;9184209;19;20007;-70
2022/09/10 06:16:23;;;;;;;23.02;11.10;;;17.00;82.30;;;;;;9183713;19;20011;-69
2022/09/10 06:19:27;;;;;;;19.77;10.10;;;17.00;82.30;;;;;;9185331;19;20022;-69
2022/09/10 06:22:35;;;;;;;20.30;11.68;;;17.00;82.40;;;;;;9182184;19;20023;-68
2022/09/10 06:25:40;;;;;;;17.67;10.95;;;17.00;82.40;;;;;;9181451;19;20023;-70
2022/09/10 06:28:44;;;;;;;;;;;17.10;82.50;;;;;;9184476;19;20359;-67
2022/09/10 06:31:48;;;;;;;26.00;12.07;;;17.10;82.30;;;;;;9184921;19;19919;-69
2022/09/10 06:34:52;;;;;;;;;;;17.10;82.20;;;;;;9178400;19;20010;-67
2022/09/10 06:38:00;;;;;;;19.73;10.82;;;17.10;82.20;;;;;;9182686;19;19985;-69
2022/09/10 06:41:06;;;;;;;16.52;10.25;;;17.10;82.10;;;;;;9182829;19;20021;-67
2022/09/10 06:44:17;;;;;;;23.08;10.93;;;17.10;82.20;;;;;;9183044;19;20044;-68
2022/09/10 06:47:31;;;;;;;19.60;11.57;;;17.10;82.30;;;;;;9182303;19;20020;-68
2022/09/10 06:50:59;;;;;;;20.23;11.63;;;17.10;82.30;;;;;;9182474;19;20085;-69
2022/09/10 06:54:10;;;;;;;23.20;11.80;;;17.10;82.40;;;;;;9182216;19;20015;-68
2022/09/10 06:57:14;;;;;;;22.42;13.07;;;17.20;82.50;;;;;;9184092;19;20026;-68
2022/09/10 07:00:18;;;;;;;;;;;17.20;82.60;;;;;;9185058;19;20090;-69
2022/09/10 07:03:26;;;;;;;20.88;11.43;;;17.20;82.40;;;;;;9181851;19;20316;-68
2022/09/10 07:06:34;;;;;;;16.75;10.63;;;17.30;82.40;;;;;;9177059;19;20022;-69
2022/09/10 07:09:49;;;;;;;20.95;11.93;;;17.30;82.40;;;;;;9179665;19;20015;-68
2022/09/10 07:12:53;;;;;;;22.52;11.90;;;17.30;82.50;;;;;;9182161;19;20015;-70
2022/09/10 07:15:58;;;;;;;22.42;12.10;;;17.30;82.50;;;;;;9181744;19;20345;-69
2022/09/10 07:19:02;;;;;;;;;;;17.40;82.50;;;;;;9182265;19;20038;-69
2022/09/10 07:22:19;;;;;;;15.18;10.27;;;17.40;82.40;;;;;;9181409;19;19923;-68
2022/09/10 07:25:27;;;;;;;16.10;10.65;;;17.40;82.30;;;;;;9179557;19;20340;-69
2022/09/10 07:28:39;;;;;;;19.33;10.68;;;17.40;83.00;;;;;;9181569;19;20019;-69
2022/09/10 07:31:46;;;;;;;20.70;10.93;;;17.40;82.40;;;;;;9182222;19;20018;-69
2022/09/10 07:34:56;;;;;;;24.08;13.35;;;17.40;82.40;;;;;;9176377;19;20014;-69
2022/09/10 07:38:04;;;;;;;19.77;9.75;;;17.40;82.50;;;;;;9178882;19;20010;-68
2022/09/10 07:41:14;;;;;;;16.50;9.68;;;17.50;82.50;;;;;;9172366;19;20284;-69
2022/09/10 07:44:19;;;;;;;17.67;9.25;;;17.50;82.60;;;;;;9173301;19;20042;-69
2022/09/10 07:47:24;;;;;;;14.05;9.48;;;17.50;82.60;;;;;;9171742;19;20018;-69
2022/09/10 07:50:28;;;;;;;;;;;17.50;82.70;;;;;;9180246;19;20029;-69
2022/09/10 07:53:32;;;;;;;19.70;9.27;;;17.50;82.50;;;;;;9176894;19;19915;-69
2022/09/10 07:56:38;;;;;;;15.43;9.07;;;17.60;82.40;;;;;;9179009;19;20022;-69
2022/09/10 07:59:44;;;;;;;16.83;10.20;;;17.60;82.50;;;;;;9179671;19;20022;-69
2022/09/10 08:02:51;;;;;;;14.25;9.02;;;17.60;82.50;;;;;;9179455;19;20451;-69
2022/09/10 08:06:01;;;;;;;13.93;8.75;;;17.60;82.60;;;;;;9177805;19;20034;-69
2022/09/10 08:09:06;;;;;;;18.50;9.45;;;17.60;82.70;;;;;;9173175;19;20026;-66
2022/09/10 08:12:13;;;;;;;20.75;9.57;;;17.70;82.70;;;;;;9177784;19;20021;-68
2022/09/10 08:15:17;;;;;;;16.90;9.05;;;17.70;82.70;;;;;;9177832;19;20051;-69
2022/09/10 08:18:22;;;;;;;13.48;8.20;;;17.70;82.70;;;;;;9180574;19;20051;-68
2022/09/10 08:21:28;;;;;;;15.25;8.88;;;17.70;82.70;;;;;;9179828;19;20028;-69
2022/09/10 08:24:34;;;;;;;17.75;9.52;;;17.80;82.80;;;;;;9176827;19;20019;-70
2022/09/10 08:27:41;;;;;;;24.02;8.75;;;17.80;82.70;;;;;;9178480;19;20023;-69
2022/09/10 08:30:55;;;;;;;15.90;9.55;;;17.80;82.80;;;;;;9177294;19;20014;-70
2022/09/10 08:34:00;;;;;;;17.27;8.75;;;17.90;82.90;;;;;;9177477;19;20019;-69
2022/09/10 08:37:04;;;;;;;14.43;8.07;;;18.00;82.80;;;;;;9171807;19;20010;-69
2022/09/10 08:40:13;;;;;;;13.68;9.70;;;18.00;82.80;;;;;;9176655;19;20055;-69
2022/09/10 08:43:30;;;;;;;13.15;8.80;;;18.10;82.90;;;;;;9179120;19;20015;-68
2022/09/10 08:46:38;;;;;;;14.38;8.43;;;18.20;83.00;;;;;;9176430;19;20014;-70
2022/09/10 08:49:46;;;;;;;13.30;7.60;;;18.20;82.90;;;;;;9180615;19;20015;-69
2022/09/10 08:52:55;;;;;;;11.18;7.40;;;18.40;82.90;;;;;;9179736;19;20014;-70
2022/09/10 08:56:09;;;;;;;12.95;6.80;;;18.40;82.80;;;;;;9178014;19;20010;-69
2022/09/10 08:59:22;;;;;;;13.43;7.82;;;18.50;82.70;;;;;;9179856;19;20467;-69
2022/09/10 09:02:35;;;;;;;15.73;7.15;;;18.60;82.70;;;;;;9178662;19;20035;-70
2022/09/10 09:05:58;;;;;;;15.57;6.75;;;18.70;82.60;;;;;;9177742;19;20022;-69
2022/09/10 09:09:12;;;;;;;14.05;6.85;;;18.80;82.50;;;;;;9175448;19;20014;-69
2022/09/10 09:12:32;;;;;;;12.15;6.45;;;18.80;82.30;;;;;;9175296;19;20018;-69
2022/09/10 09:15:46;;;;;;;12.48;5.07;;;18.90;82.30;;;;;;9178125;19;20361;-70
2022/09/10 09:19:02;;;;;;;7.60;4.90;;;19.00;82.30;;;;;;9180235;19;20038;-70
2022/09/10 09:22:14;;;;;;;12.52;6.07;;;19.10;82.90;;;;;;9185136;19;20014;-69
2022/09/10 09:25:26;;;;;;;10.25;3.65;;;19.20;82.10;;;;;;9183978;19;20010;-69
2022/09/10 09:28:38;;;;;;;5.13;3.03;;;19.40;82.00;;;;;;9186523;19;20426;-69
2022/09/10 09:31:47;;;;;;;4.63;2.38;;;19.50;81.80;;;;;;9185817;19;20025;-69
2022/09/10 09:34:54;;;;;;;6.05;2.60;;;19.60;81.60;;;;;;9180848;19;20471;-70
2022/09/10 09:38:12;;;;;;;4.90;2.45;;;19.60;81.40;;;;;;9186759;19;20078;-69
2022/09/10 09:41:24;;;;;;;3.75;2.15;;;19.70;81.20;;;;;;9184698;19;20359;-67
2022/09/10 09:44:33;;;;;;;6.72;2.47;;;19.80;81.10;;;;;;9184340;19;20022;-69
2022/09/10 09:47:39;;;;;;;5.35;2.58;;;19.90;81.00;;;;;;9186370;19;20014;-70
2022/09/10 09:50:46;;;;;;;6.03;2.97;;;20.00;80.90;;;;;;9184697;19;20376;-70
2022/09/10 09:53:51;;;;;;;3.85;3.17;;;20.10;80.80;;;;;;9185730;19;20507;-68
2022/09/10 09:57:19;;;;;;;6.90;2.90;;;20.20;80.60;;;;;;9186581;19;20648;-69
2022/09/10 10:00:37;;;;;;;7.00;3.60;;;20.30;80.50;;;;;;9185651;19;20021;-69
2022/09/10 10:04:00;;;;;;;4.68;2.92;;;20.40;80.30;;;;;;9184821;19;20048;-69
2022/09/10 10:07:04;;;;;;;4.82;3.00;;;20.50;80.10;;;;;;9182368;19;20018;-70
2022/09/10 10:10:20;;;;;;;4.38;2.95;;;20.50;80.00;;;;;;9183233;19;20007;-69
2022/09/10 10:13:25;;;;;;;7.18;2.67;;;20.60;79.80;;;;;;9185420;19;20082;-69
2022/09/10 10:16:35;;;;;;;8.15;3.20;;;20.60;79.60;;;;;;9184787;19;20089;-70
2022/09/10 10:19:42;;;;;;;6.82;3.30;;;20.60;79.50;;;;;;9185546;19;20049;-68
2022/09/10 10:22:47;;;;;;;5.50;3.55;;;20.70;79.50;;;;;;9185862;19;20430;-69
2022/09/10 10:25:51;;;;;;;5.07;3.17;;;20.70;79.50;;;;;;9183519;19;20519;-69
2022/09/10 10:28:59;;;;;;;5.15;3.00;;;20.80;79.40;;;;;;9185378;19;20034;-69
2022/09/10 10:32:04;;;;;;;8.40;3.38;;;20.90;79.20;;;;;;9183595;19;20520;-69
2022/09/10 10:35:24;;;;;;;5.85;3.00;;;21.00;79.10;;;;;;9180178;19;20523;-68
2022/09/10 10:38:31;;;;;;;4.32;2.55;;;21.10;78.80;;;;;;9185096;19;20015;-68
2022/09/10 10:41:45;;;;;;;5.85;2.50;;;21.20;78.70;;;;;;9183825;19;20022;-70
2022/09/10 10:45:03;;;;;;;3.30;2.30;;;21.20;78.50;;;;;;9183526;19;20011;-68
2022/09/10 10:48:12;;;;;;;3.45;2.10;;;21.30;78.20;;;;;;9184229;19;20460;-69
2022/09/10 10:51:25;;;;;;;5.38;2.00;;;21.40;78.10;;;;;;9184842;19;20094;-71
2022/09/10 10:54:44;;;;;;;6.87;1.90;;;21.50;77.90;;;;;;9184027;19;20018;-71
2022/09/10 10:58:11;;;;;;;3.90;2.03;;;21.50;77.70;;;;;;9184710;19;20042;-70
2022/09/10 11:01:21;;;;;;;5.05;1.67;;;21.50;77.40;;;;;;9180321;19;20719;-69
2022/09/10 11:04:35;;;;;;;2.75;1.70;;;21.60;77.40;;;;;;9178338;19;20030;-69
2022/09/10 11:07:45;;;;;;;5.43;2.17;;;21.70;77.30;;;;;;9175239;19;20117;-69
2022/09/10 11:10:53;;;;;;;3.38;1.85;;;21.80;77.20;;;;;;9180452;19;20055;-68
2022/09/10 11:14:01;;;;;;;3.55;2.30;;;22.00;77.10;;;;;;9182960;19;20081;-69
2022/09/10 11:17:12;;;;;;;5.93;2.35;;;22.10;76.90;;;;;;9174915;19;20018;-70
2022/09/10 11:20:22;;;;;;;3.95;2.22;;;22.30;76.70;;;;;;9174389;19;20025;-69
2022/09/10 11:23:40;;;;;;;3.45;1.70;;;22.40;76.30;;;;;;9176092;19;20542;-63
2022/09/10 11:26:48;;;;;;;4.50;1.70;;;22.50;75.80;;;;;;9172815;19;20102;-64
2022/09/10 11:29:57;;;;;;;5.25;2.60;;;22.60;75.60;;;;;;9174782;19;20047;-67
2022/09/10 11:33:06;;;;;;;5.90;2.50;;;22.60;75.20;;;;;;9173769;19;20022;-65
2022/09/10 11:36:13;;;;;;;3.72;2.53;;;22.60;75.00;;;;;;9168339;19;20018;-65
2022/09/10 11:39:26;;;;;;;4.28;2.20;;;22.60;74.90;;;;;;9174042;19;20011;-64
2022/09/10 11:42:36;;;;;;;3.33;1.40;;;22.60;74.60;;;;;;9171475;19;20106;-64
2022/09/10 11:45:47;;;;;;;2.75;1.65;;;22.60;74.50;;;;;;9172310;19;20051;-66
2022/09/10 11:48:55;;;;;;;4.18;2.13;;;22.60;74.40;;;;;;9171946;19;20043;-62
2022/09/10 11:51:59;;;;;;;6.07;2.20;;;22.60;74.30;;;;;;9174816;19;20087;-63
2022/09/10 11:55:07;;;;;;;4.68;2.58;;;22.50;74.40;;;;;;9172851;19;20018;-64
2022/09/10 11:58:17;;;;;;;5.10;2.85;;;22.50;74.30;;;;;;9174613;19;20021;-63
2022/09/10 12:01:32;;;;;;;6.65;2.05;;;22.50;74.30;;;;;;9171802;19;20048;-64
2022/09/10 12:04:46;;;;;;;3.83;2.00;;;22.40;74.10;;;;;;9167659;19;20022;-66
2022/09/10 12:08:02;;;;;;;4.57;1.55;;;22.40;74.60;;;;;;9170468;19;20022;-64
2022/09/10 12:11:19;;;;;;;3.25;1.98;;;22.30;73.90;;;;;;9172827;19;20082;-64
2022/09/10 12:14:23;;;;;;;4.07;2.78;;;22.30;73.80;;;;;;9173768;19;20015;-66
2022/09/10 12:17:30;;;;;;;;;;;22.30;73.90;;;;;;9173971;19;20029;-63
2022/09/10 12:20:38;;;;;;;7.03;3.88;;;22.20;74.10;;;;;;9171012;19;20634;-64
2022/09/10 12:23:45;;;;;;;4.70;3.00;;;22.20;74.10;;;;;;9172477;19;20025;-64
2022/09/10 12:26:51;;;;;;;6.05;3.03;;;22.20;74.00;;;;;;9170458;19;20023;-64
2022/09/10 12:29:54;;;;;;;6.15;3.30;;;22.10;73.90;;;;;;9173147;19;20014;-65
2022/09/10 12:32:59;;;;;;;5.53;3.05;;;22.10;74.00;;;;;;9173006;19;20051;-63
2022/09/10 12:36:03;;;;;;;5.00;2.38;;;22.10;74.00;;;;;;9168129;19;20014;-62
2022/09/10 12:39:23;;;;;;;5.05;2.40;;;22.10;74.00;;;;;;9173742;19;20031;-65
2022/09/10 12:42:35;;;;;;;4.30;2.00;;;22.10;73.60;;;;;;9172814;19;20360;-63
2022/09/10 12:46:05;;;;;;;5.82;2.30;;;22.10;73.70;;;;;;9172167;19;20094;-63
2022/09/10 12:49:13;;;;;;;5.25;1.75;;;22.10;74.20;;;;;;9174049;19;20476;-62
2022/09/10 12:52:24;;;;;;;5.50;1.80;;;22.20;73.70;;;;;;9170522;19;20430;-65
2022/09/10 12:55:41;;;;;;;2.92;1.50;;;22.20;73.50;;;;;;9168764;19;20018;-66
2022/09/10 12:59:03;;;;;;;2.80;1.45;;;22.30;73.10;;;;;;9171742;19;20035;-65
2022/09/10 13:02:21;;;;;;;4.57;2.33;;;22.40;72.80;;;;;;9171777;19;20027;-63
2022/09/10 13:05:35;;;;;;;9.25;2.50;;;22.60;72.90;;;;;;9166696;19;20019;-65
2022/09/10 13:08:42;;;;;;;4.97;2.67;;;22.70;72.90;;;;;;9168453;19;20775;-67
2022/09/10 13:11:50;;;;;;;5.55;2.42;;;22.80;72.80;;;;;;9173139;19;20014;-63
2022/09/10 13:15:00;;;;;;;4.80;2.85;;;22.90;72.80;;;;;;9179105;19;20010;-64
2022/09/10 13:18:25;;;;;;;6.13;2.90;;;23.00;72.70;;;;;;9178379;19;20028;-63
2022/09/10 13:21:54;;;;;;;8.55;3.05;;;23.00;72.30;;;;;;9178031;19;20019;-62
2022/09/10 13:25:04;;;;;;;7.57;2.80;;;23.00;72.30;;;;;;9174175;19;20756;-64
2022/09/10 13:28:43;;;;;;;8.80;2.78;;;23.00;72.30;;;;;;9170163;19;20014;-64
2022/09/10 13:32:04;;;;;;;7.88;2.60;;;23.00;72.00;;;;;;9169679;19;20114;-66
2022/09/10 13:35:28;;;;;;;4.63;2.47;;;23.00;71.90;;;;;;9166094;19;20454;-63
2022/09/10 13:39:06;;;;;;;5.53;2.10;;;22.90;71.80;;;;;;9170471;19;20015;-63
2022/09/10 13:42:35;;;;;;;3.92;2.08;;;22.80;71.70;;;;;;9167497;19;20014;-65
2022/09/10 13:45:41;;;;;;;6.70;1.90;;;22.80;71.80;;;;;;9169661;19;20843;-66
2022/09/10 13:48:52;;;;;;;4.55;1.70;;;22.80;71.80;;;;;;9169004;19;20117;-65
2022/09/10 13:51:58;;;;;;;4.82;2.03;;;22.60;71.60;;;;;;9160460;19;20086;-67
2022/09/10 13:55:04;;;;;;;4.10;2.30;;;22.60;71.70;;;;;;9166664;19;20022;-64
2022/09/10 13:58:13;;;;;;;3.40;2.28;;;22.50;71.70;;;;;;9164775;19;20025;-65
2022/09/10 14:01:17;;;;;;;3.40;1.95;;;22.50;71.80;;;;;;9166007;19;20014;-63
2022/09/10 14:04:26;;;;;;;2.60;1.77;;;22.50;71.40;;;;;;9161506;19;20049;-64
2022/09/10 14:07:31;;;;;;;5.43;2.05;;;22.40;71.20;;;;;;9165955;19;20014;-63
2022/09/10 14:10:52;;;;;;;4.13;1.95;;;22.40;71.20;;;;;;9173049;19;20018;-65
2022/09/10 14:14:04;;;;;;;8.70;1.85;;;22.40;71.10;;;;;;9173609;19;20014;-65
2022/09/10 14:17:11;;;;;;;5.60;2.60;;;22.30;70.90;;;;;;9172230;19;20113;-66
2022/09/10 14:20:25;;;;;;;4.28;2.70;;;22.30;70.80;;;;;;9170041;19;20014;-65
2022/09/10 14:23:29;;;;;;;7.40;2.83;;;22.30;70.80;;;;;;9172731;19;20090;-65
2022/09/10 14:26:34;;;;;;;9.07;3.80;;;22.30;71.00;;;;;;9171130;19;20488;-66
2022/09/10 14:29:38;;;;;;;7.25;3.38;;;22.30;70.90;;;;;;9171520;19;20464;-64
2022/09/10 14:32:42;;;;;;;14.57;4.63;;;22.30;71.00;;;;;;9172167;19;20026;-65
2022/09/10 14:35:51;;;;;;;4.75;3.00;;;22.30;71.00;;;;;;9168277;19;20371;-64
2022/09/10 14:39:02;;;;;;;6.15;3.40;;;22.40;71.00;;;;;;9173012;19;20015;-65
2022/09/10 14:42:11;;;;;;;6.22;3.28;;;22.40;71.00;;;;;;9171445;19;20019;-64
2022/09/10 14:45:39;;;;;;;5.72;3.63;;;22.40;70.80;;;;;;9172239;19;20022;-64
2022/09/10 14:49:03;;;;;;;4.80;3.58;;;22.30;70.70;;;;;;9174577;19;20022;-65
2022/09/10 14:52:08;;;;;;;8.23;3.92;;;22.30;70.80;;;;;;9174370;19;20018;-65
2022/09/10 14:55:12;;;;;;;5.95;3.97;;;22.40;70.80;;;;;;9177007;19;20015;-64
2022/09/10 14:58:16;;;;;;;5.53;3.72;;;22.30;70.70;;;;;;9173418;19;20025;-66
2022/09/10 15:01:19;;;;;;;5.82;3.50;;;22.40;70.80;;;;;;9176292;19;20021;-65
2022/09/10 15:04:25;;;;;;;7.68;3.53;;;22.40;70.80;;;;;;9182648;19;20451;-66
2022/09/10 15:07:31;;;;;;;5.30;3.80;;;22.40;70.70;;;;;;9178485;19;20117;-65
2022/09/10 15:10:34;;;;;;;4.45;3.40;;;22.40;70.60;;;;;;9181430;19;20023;-67
2022/09/10 15:13:42;;;;;;;4.85;3.25;;;22.30;70.50;;;;;;9181298;19;20024;-64
2022/09/10 15:16:45;;;;;;;9.75;3.85;;;22.30;70.40;;;;;;9180117;19;20018;-66
2022/09/10 15:19:50;;;;;;;7.45;3.63;;;22.30;70.30;;;;;;9181657;19;20018;-64
2022/09/10 15:22:56;;;;;;;3.90;3.50;;;22.30;70.30;;;;;;9180232;19;20027;-63
2022/09/10 15:26:01;;;;;;;5.93;3.75;;;22.30;70.20;;;;;;9178602;19;20021;-63
2022/09/10 15:29:06;;;;;;;7.88;2.65;;;22.30;70.20;;;;;;9181234;19;20746;-65
2022/09/10 15:32:11;;;;;;;6.45;3.55;;;22.20;70.20;;;;;;9180124;19;20016;-64
2022/09/10 15:35:15;;;;;;;4.45;3.40;;;22.30;70.20;;;;;;9175466;19;20078;-64
2022/09/10 15:38:21;;;;;;;6.45;4.35;;;22.20;70.10;;;;;;9180082;19;20872;-64
2022/09/10 15:41:25;;;;;;;4.57;3.70;;;22.20;70.00;;;;;;9181656;19;20021;-65
2022/09/10 15:44:28;;;;;;;12.52;6.80;;;22.30;70.10;;;;;;9173494;19;20020;-66
2022/09/10 15:47:32;;;;;;;7.80;4.85;;;22.20;70.10;;;;;;9172291;19;20857;-67
2022/09/10 15:50:37;;;;;;;;;;;22.20;70.10;;;;;;9174370;19;20475;-64
2022/09/10 15:53:44;;;;;;;4.60;3.70;;;22.30;70.20;;;;;;9174917;19;20289;-65
2022/09/10 15:56:48;;;;;;;7.38;4.85;;;22.20;70.10;;;;;;9173507;19;20018;-63
2022/09/10 15:59:53;;;;;;;7.40;4.90;;;22.20;70.00;;;;;;9174633;19;20022;-65
2022/09/10 16:02:56;;;;;;;13.15;7.95;;;22.20;70.00;;;;;;9175440;19;20028;-65
2022/09/10 16:06:02;;;;;;;8.10;4.65;;;22.20;70.00;;;;;;9173233;19;20015;-65
2022/09/10 16:09:10;;;;;;;10.10;5.65;;;22.20;69.90;;;;;;9171431;19;20483;-63
2022/09/10 16:12:16;;;;;;;6.43;4.13;;;22.20;69.80;;;;;;9175038;19;20123;-64
2022/09/10 16:15:19;;;;;;;111.95;40.13;;;22.20;69.80;;;;;;9174770;19;20014;-66
2022/09/10 16:18:23;;;;;;;;;;;22.20;69.70;;;;;;9174942;19;20030;-65